Erin Prairie, Wisconsin
Current Conditions -  °F | °C
As of 5:15 PM on Monday 22 Dec 2014 (Local Time) from KRNH Reporting Station
Haze Haze  
Wind Chill: 29°   Ceiling: 1300
Heat Index: 36°   Visibility: 5mi
Dew Point: 35°   Wind: 9mph
Humidity: 95%   Direction: 110°ESE
Pressure: 29.63"   Gusts: NA
Location:  44.9659°N, 92.3734°W
Report Text: KRNH 222315Z AUTO 11008KT 5SM BR OVC013 02/02 A2963 RMK AO2 T00240016
Loading
Personal Weather Stations






























Interactive Weather Map New forecast layout! Learn more

10-Day Weather Forecast

Advertisements
Track Severe Weather on mobile